Time;durP1;ratioP1;P1;durP2;ratioP2;P2;SDS_P1;SDS_P2;PMS_P1;PMS_P2;Temp;Humidity;BMP_temperature;BMP_pressure;BME280_temperature;BME280_humidity;BME280_pressure;Samples;Min_cycle;Max_cycle;Signal;HPM_P1;HPM_P2
2022/05/22 00:02:20;;;;;;;5.68;3.25;;;16.30;60.60;;;;;;5042038;28;20091;-50
2022/05/22 00:04:51;;;;;;;3.67;3.10;;;16.20;60.50;;;;;;5031692;28;20390;-49
2022/05/22 00:07:20;;;;;;;3.72;3.42;;;16.20;60.40;;;;;;5040126;28;20108;-52
2022/05/22 00:09:52;;;;;;;;;;;16.20;60.30;;;;;;5032805;28;20040;-47
2022/05/22 00:12:18;;;;;;;4.20;3.50;;;16.20;60.30;;;;;;5039230;28;19920;-52
2022/05/22 00:14:50;;;;;;;3.55;3.25;;;16.10;59.80;;;;;;5027796;28;20076;-52
2022/05/22 00:17:17;;;;;;;6.43;3.63;;;16.10;59.90;;;;;;5026778;28;20052;-51
2022/05/22 00:19:45;;;;;;;3.90;3.50;;;16.10;59.90;;;;;;5041964;28;20049;-49
2022/05/22 00:22:12;;;;;;;4.18;3.83;;;16.10;59.90;;;;;;5047657;28;20106;-49
2022/05/22 00:24:41;;;;;;;7.20;3.83;;;16.00;59.90;;;;;;5025005;28;20048;-49
2022/05/22 00:27:08;;;;;;;3.90;3.60;;;15.90;60.60;;;;;;5045125;28;20552;-48
2022/05/22 00:29:40;;;;;;;;;;;15.90;59.80;;;;;;5008617;28;20050;-51
2022/05/22 00:32:08;;;;;;;4.25;3.50;;;15.90;59.90;;;;;;5045321;28;19979;-49
2022/05/22 00:34:38;;;;;;;3.70;3.40;;;15.80;59.30;;;;;;5047778;28;20040;-50
2022/05/22 00:37:16;;;;;;;4.55;3.45;;;15.80;59.50;;;;;;5013126;28;20050;-50
2022/05/22 00:39:46;;;;;;;3.95;3.60;;;15.70;59.60;;;;;;5013689;28;20071;-50
2022/05/22 00:42:23;;;;;;;5.57;3.47;;;15.70;59.50;;;;;;5030457;28;20073;-49
2022/05/22 00:44:50;;;;;;;3.35;3.05;;;15.60;59.70;;;;;;5034501;28;20033;-52
2022/05/22 00:47:21;;;;;;;7.30;3.92;;;15.60;59.80;;;;;;5039824;28;20061;-49
2022/05/22 00:49:51;;;;;;;4.32;3.72;;;15.50;59.90;;;;;;5025389;28;20052;-52
2022/05/22 00:52:45;;;;;;;4.30;3.83;;;15.50;60.00;;;;;;5050651;28;20043;-48
2022/05/22 00:55:20;;;;;;;4.78;3.17;;;15.40;60.10;;;;;;5026579;28;20049;-48
2022/05/22 00:58:02;;;;;;;4.20;3.08;;;15.40;60.00;;;;;;5011629;28;20053;-52
2022/05/22 01:00:37;;;;;;;4.45;3.78;;;15.40;59.90;;;;;;5049198;28;20040;-48
2022/05/22 01:06:00;;;;;;;3.60;3.28;;;15.30;60.20;;;;;;5020168;28;20044;-48
2022/05/22 01:08:31;;;;;;;4.00;3.45;;;15.20;60.50;;;;;;5034145;28;20437;-48
2022/05/22 01:11:00;;;;;;;3.67;3.00;;;15.20;60.60;;;;;;5028195;28;20045;-49
2022/05/22 01:13:39;;;;;;;3.58;3.28;;;15.20;60.70;;;;;;5037253;28;20046;-48
2022/05/22 01:16:13;;;;;;;5.03;3.20;;;15.20;61.50;;;;;;5051898;28;20119;-52
2022/05/22 01:18:48;;;;;;;4.13;3.72;;;15.10;60.70;;;;;;5029455;28;20052;-47
2022/05/22 01:21:25;;;;;;;3.22;2.92;;;15.10;61.00;;;;;;5012947;28;20085;-50
2022/05/22 01:23:52;;;;;;;3.40;3.20;;;15.10;61.00;;;;;;5035916;28;20041;-50
2022/05/22 01:26:24;;;;;;;3.45;2.95;;;15.10;60.80;;;;;;5024448;28;20450;-48
2022/05/22 01:29:20;;;;;;;4.47;3.42;;;15.00;60.90;;;;;;5043523;28;20133;-48
2022/05/22 01:31:46;;;;;;;6.00;3.45;;;15.00;60.90;;;;;;5037321;28;20394;-48
2022/05/22 01:34:13;;;;;;;3.15;2.83;;;15.00;61.10;;;;;;5029315;28;20044;-49
2022/05/22 01:36:42;;;;;;;3.53;3.13;;;15.00;61.10;;;;;;5036789;28;20037;-48
2022/05/22 01:39:09;;;;;;;3.60;2.97;;;14.90;61.10;;;;;;5026080;28;20045;-47
2022/05/22 01:41:52;;;;;;;4.55;3.17;;;14.90;61.20;;;;;;5015478;28;20060;-48
2022/05/22 01:44:20;;;;;;;3.47;3.17;;;14.90;61.20;;;;;;5025051;28;20041;-48
2022/05/22 01:46:47;;;;;;;3.13;2.85;;;14.90;61.30;;;;;;5013684;28;20709;-51
2022/05/22 01:49:19;;;;;;;3.55;3.30;;;14.90;61.40;;;;;;5023564;28;20045;-50
2022/05/22 01:51:52;;;;;;;;;;;14.90;61.40;;;;;;5021029;28;20045;-50
2022/05/22 01:54:18;;;;;;;3.00;2.75;;;15.00;61.60;;;;;;5022649;28;19924;-52
2022/05/22 01:56:46;;;;;;;4.32;2.85;;;14.90;61.00;;;;;;5032004;28;20048;-49
2022/05/22 01:59:14;;;;;;;4.50;2.97;;;14.90;61.20;;;;;;5017790;28;20532;-47
2022/05/22 02:01:49;;;;;;;3.40;3.10;;;14.90;61.20;;;;;;5024204;28;20041;-48
2022/05/22 02:04:16;;;;;;;3.60;3.30;;;14.90;61.20;;;;;;5032582;28;20049;-48
2022/05/22 02:09:36;;;;;;;2.97;2.78;;;14.80;61.20;;;;;;5002410;28;20045;-48
2022/05/22 02:12:03;;;;;;;3.60;3.30;;;14.80;60.90;;;;;;5041619;28;20405;-52
2022/05/22 02:14:31;;;;;;;3.08;2.83;;;14.70;60.80;;;;;;5025780;28;20098;-48
2022/05/22 02:17:16;;;;;;;3.50;2.97;;;14.70;60.80;;;;;;5032011;28;20072;-52
2022/05/22 02:19:54;;;;;;;4.90;3.60;;;14.70;61.10;;;;;;5029343;28;20120;-52
2022/05/22 02:22:42;;;;;;;2.88;2.67;;;14.60;60.80;;;;;;5024807;28;20050;-47
2022/05/22 02:25:38;;;;;;;3.28;2.95;;;14.60;61.00;;;;;;5029448;28;20520;-52
2022/05/22 02:28:08;;;;;;;4.05;3.08;;;14.60;60.90;;;;;;5012594;28;20584;-48
2022/05/22 02:30:41;;;;;;;4.72;2.95;;;14.50;60.80;;;;;;5033199;28;20041;-50
2022/05/22 02:33:12;;;;;;;3.90;3.60;;;14.50;61.00;;;;;;5030890;28;20053;-49
2022/05/22 02:35:51;;;;;;;4.22;3.13;;;14.50;61.10;;;;;;4994399;28;20049;-49
2022/05/22 02:38:28;;;;;;;3.90;3.60;;;14.40;61.20;;;;;;5040632;28;20076;-49
2022/05/22 02:40:55;;;;;;;3.40;3.10;;;14.40;61.40;;;;;;5026355;28;20548;-46
2022/05/22 02:43:24;;;;;;;3.83;3.42;;;14.40;61.60;;;;;;5051650;28;20125;-48
2022/05/22 02:46:01;;;;;;;3.60;3.30;;;14.40;61.90;;;;;;5020636;28;20099;-49
2022/05/22 02:48:29;;;;;;;;;;;14.40;62.30;;;;;;5020063;28;20452;-48
2022/05/22 02:51:05;;;;;;;3.30;2.95;;;14.50;62.30;;;;;;5026148;28;19981;-49
2022/05/22 02:53:34;;;;;;;3.88;3.30;;;14.50;62.00;;;;;;5031954;28;20045;-49
2022/05/22 02:56:25;;;;;;;3.20;2.90;;;14.50;62.20;;;;;;5041968;28;20060;-49
2022/05/22 02:59:21;;;;;;;3.60;3.30;;;14.60;63.50;;;;;;5025243;28;20057;-51
2022/05/22 03:02:04;;;;;;;3.20;2.90;;;14.60;62.40;;;;;;5034830;28;20556;-49
2022/05/22 03:04:38;;;;;;;3.35;3.03;;;14.60;62.40;;;;;;5040520;28;20139;-48
2022/05/22 03:07:11;;;;;;;3.30;2.47;;;14.60;62.60;;;;;;5034674;28;20041;-51
2022/05/22 03:09:46;;;;;;;3.35;3.05;;;14.60;62.40;;;;;;5031054;28;20041;-48
2022/05/22 03:12:21;;;;;;;3.05;2.75;;;14.60;62.50;;;;;;5029908;28;20045;-48
2022/05/22 03:14:57;;;;;;;3.67;3.33;;;14.60;62.70;;;;;;5046037;28;20057;-49
2022/05/22 03:17:26;;;;;;;3.60;3.30;;;14.60;62.40;;;;;;5026742;28;20069;-48
2022/05/22 03:19:56;;;;;;;3.50;3.05;;;14.60;62.30;;;;;;5031194;28;20113;-49
2022/05/22 03:22:23;;;;;;;2.95;2.75;;;14.60;62.40;;;;;;5039154;28;20045;-47
2022/05/22 03:24:51;;;;;;;4.22;3.30;;;14.50;62.30;;;;;;5003287;28;20497;-49
2022/05/22 03:27:20;;;;;;;3.83;3.42;;;14.60;62.30;;;;;;5023738;28;20045;-49
2022/05/22 03:29:51;;;;;;;3.75;3.45;;;14.50;62.20;;;;;;5027626;28;20072;-48
2022/05/22 03:32:18;;;;;;;3.38;2.97;;;14.60;62.30;;;;;;5003424;28;20054;-48
2022/05/22 03:34:48;;;;;;;3.95;3.58;;;14.50;62.20;;;;;;5022219;28;20049;-48
2022/05/22 03:37:15;;;;;;;2.70;2.50;;;14.50;62.20;;;;;;5019063;28;20041;-50
2022/05/22 03:39:45;;;;;;;3.70;3.28;;;14.50;62.20;;;;;;5013705;28;20120;-47
2022/05/22 03:42:14;;;;;;;3.83;2.90;;;14.50;62.20;;;;;;5028606;28;20041;-50
2022/05/22 03:44:46;;;;;;;4.05;2.92;;;14.40;62.10;;;;;;5004350;28;20120;-48
2022/05/22 03:47:13;;;;;;;4.05;2.83;;;14.40;62.20;;;;;;5017301;28;20069;-52
2022/05/22 03:50:08;;;;;;;3.28;2.97;;;14.40;62.20;;;;;;5029871;28;20041;-52
2022/05/22 03:52:44;;;;;;;4.40;2.92;;;14.40;62.20;;;;;;5014822;28;20034;-49
2022/05/22 03:55:27;;;;;;;3.75;3.33;;;14.40;62.30;;;;;;5021831;28;20141;-48
2022/05/22 03:57:59;;;;;;;3.45;3.08;;;14.40;62.20;;;;;;5022198;28;20076;-52
2022/05/22 04:00:39;;;;;;;3.55;3.25;;;14.30;62.40;;;;;;5029178;28;20056;-47
2022/05/22 04:03:06;;;;;;;4.68;3.35;;;14.30;62.30;;;;;;5036393;28;20059;-51
2022/05/22 04:05:38;;;;;;;3.63;3.13;;;14.30;62.40;;;;;;5012983;28;20405;-48
2022/05/22 04:08:07;;;;;;;4.38;3.58;;;14.30;62.50;;;;;;5030722;28;20053;-48
2022/05/22 04:10:42;;;;;;;4.10;3.35;;;14.30;62.70;;;;;;5029600;28;20053;-51
2022/05/22 04:13:09;;;;;;;3.67;3.38;;;14.30;62.80;;;;;;5035634;28;20038;-50
2022/05/22 04:15:46;;;;;;;3.83;3.47;;;14.30;62.90;;;;;;5030827;28;20037;-52
2022/05/22 04:18:14;;;;;;;4.20;3.58;;;14.30;63.20;;;;;;5013487;28;20049;-49
2022/05/22 04:20:44;;;;;;;3.65;3.35;;;14.30;63.10;;;;;;5012889;28;20500;-50
2022/05/22 04:26:08;;;;;;;3.70;3.38;;;14.30;63.20;;;;;;4914365;29;20551;-46
2022/05/22 04:28:36;;;;;;;3.33;3.03;;;14.30;63.30;;;;;;4938652;28;20039;-46
2022/05/22 04:31:12;;;;;;;3.80;3.40;;;14.20;63.40;;;;;;4954191;28;20061;-49
2022/05/22 04:33:59;;;;;;;4.10;3.80;;;14.30;63.40;;;;;;4952627;29;20047;-47
2022/05/22 04:36:27;;;;;;;3.88;3.50;;;14.30;63.50;;;;;;4945760;28;20058;-48
2022/05/22 04:38:56;;;;;;;4.28;3.88;;;14.30;63.60;;;;;;4949222;29;20062;-47
2022/05/22 04:41:31;;;;;;;3.97;3.58;;;14.30;63.80;;;;;;4951477;29;20058;-47
2022/05/22 04:44:06;;;;;;;4.10;3.70;;;14.30;64.00;;;;;;4951600;29;20047;-48
2022/05/22 04:46:37;;;;;;;3.95;3.53;;;14.30;64.10;;;;;;4948660;28;20048;-49
2022/05/22 04:49:04;;;;;;;4.15;3.75;;;14.30;64.20;;;;;;4948929;28;20042;-47
2022/05/22 04:51:31;;;;;;;4.00;3.55;;;14.30;64.30;;;;;;4950881;29;20051;-48
2022/05/22 04:54:02;;;;;;;4.65;3.83;;;14.40;64.50;;;;;;4958984;28;20082;-46
2022/05/22 04:56:38;;;;;;;5.38;4.05;;;14.40;64.70;;;;;;4948947;29;20142;-47
2022/05/22 04:59:19;;;;;;;6.80;3.80;;;14.40;64.80;;;;;;4954524;28;20471;-46
2022/05/22 05:01:46;;;;;;;4.43;4.03;;;14.40;64.90;;;;;;4952129;28;20039;-49
2022/05/22 05:04:16;;;;;;;4.18;3.72;;;14.50;65.10;;;;;;4948556;29;20054;-48
2022/05/22 05:06:52;;;;;;;5.80;3.92;;;14.50;65.20;;;;;;4958247;28;20126;-47
2022/05/22 05:09:54;;;;;;;3.63;3.33;;;14.60;65.70;;;;;;4934930;29;20206;-50
2022/05/22 05:12:43;;;;;;;4.65;4.25;;;14.60;65.50;;;;;;4952015;29;20558;-47
2022/05/22 05:15:24;;;;;;;5.45;4.25;;;14.70;65.80;;;;;;4947946;28;20062;-47
2022/05/22 05:18:04;;;;;;;6.07;5.32;;;14.70;65.90;;;;;;4947709;29;20051;-51
2022/05/22 05:20:36;;;;;;;6.57;5.07;;;14.80;66.20;;;;;;4950168;29;20478;-48
2022/05/22 05:23:05;;;;;;;5.78;5.15;;;14.90;66.60;;;;;;4955286;28;20126;-46
2022/05/22 05:25:42;;;;;;;8.25;5.97;;;15.00;66.90;;;;;;4932102;29;20135;-50
2022/05/22 05:28:11;;;;;;;6.25;5.47;;;15.10;67.10;;;;;;4950250;29;20098;-47
2022/05/22 05:30:39;;;;;;;8.27;5.70;;;15.20;67.30;;;;;;4951211;29;20045;-47
2022/05/22 05:33:07;;;;;;;6.22;5.63;;;15.30;67.60;;;;;;4944033;29;20534;-46
2022/05/22 05:36:09;;;;;;;7.28;6.25;;;15.30;67.70;;;;;;4904711;29;20065;-47
2022/05/22 05:39:12;;;;;;;8.45;6.20;;;15.50;68.00;;;;;;4937492;28;20066;-47
2022/05/22 05:41:55;;;;;;;6.95;6.25;;;15.60;67.20;;;;;;4951606;29;20533;-46
2022/05/22 05:44:29;;;;;;;7.53;6.50;;;15.70;67.10;;;;;;4949566;29;20551;-50
2022/05/22 05:47:09;;;;;;;11.00;6.78;;;15.80;67.00;;;;;;4933148;29;20050;-47
2022/05/22 05:49:51;;;;;;;8.13;6.32;;;15.90;67.10;;;;;;4956370;28;20090;-48
2022/05/22 05:52:26;;;;;;;9.32;6.53;;;16.00;67.00;;;;;;4958803;28;20106;-48
2022/05/22 05:55:11;;;;;;;9.63;6.40;;;16.00;66.90;;;;;;4930294;29;20130;-47
2022/05/22 05:58:00;;;;;;;8.00;6.15;;;16.10;67.20;;;;;;4951265;28;20065;-45
2022/05/22 06:00:26;;;;;;;7.15;5.95;;;16.20;66.80;;;;;;4955295;28;20392;-44
2022/05/22 06:02:53;;;;;;;10.38;6.38;;;16.20;66.70;;;;;;4973098;28;20441;-48
2022/05/22 06:05:21;;;;;;;7.90;6.97;;;16.30;66.60;;;;;;4944817;29;20392;-46
2022/05/22 06:07:50;;;;;;;9.38;6.82;;;16.30;66.70;;;;;;4953481;29;20043;-47
2022/05/22 06:10:21;;;;;;;9.32;6.43;;;16.40;66.90;;;;;;4960146;28;20059;-45
2022/05/22 06:13:11;;;;;;;9.30;7.53;;;16.40;66.90;;;;;;4939284;29;20204;-45
2022/05/22 06:15:44;;;;;;;8.43;6.35;;;16.50;66.40;;;;;;4950442;29;20334;-47
2022/05/22 06:18:13;;;;;;;11.50;7.18;;;16.60;66.40;;;;;;4954657;28;20058;-46
2022/05/22 06:20:40;;;;;;;11.90;7.45;;;16.60;66.40;;;;;;4932414;29;20047;-44
2022/05/22 06:23:16;;;;;;;7.80;6.53;;;16.70;66.30;;;;;;4933298;29;20047;-45
2022/05/22 06:26:01;;;;;;;10.77;7.05;;;16.70;66.20;;;;;;4952513;29;20698;-45
2022/05/22 06:28:52;;;;;;;9.73;6.15;;;16.80;66.10;;;;;;4970097;28;20039;-47
2022/05/22 06:31:44;;;;;;;8.88;6.55;;;16.90;66.00;;;;;;4911326;28;20052;-44
2022/05/22 06:34:33;;;;;;;7.35;6.53;;;16.90;65.80;;;;;;4941787;28;20058;-44
2022/05/22 06:37:24;;;;;;;10.07;6.97;;;17.00;66.00;;;;;;4932065;28;20431;-45
2022/05/22 06:40:12;;;;;;;11.35;7.88;;;17.00;65.80;;;;;;4952551;28;20473;-46
2022/05/22 06:42:59;;;;;;;8.82;7.15;;;17.10;65.80;;;;;;4936233;28;20054;-46
2022/05/22 06:45:51;;;;;;;13.27;7.07;;;17.20;65.90;;;;;;4937693;28;20114;-43
2022/05/22 06:48:44;;;;;;;7.07;6.38;;;17.20;65.60;;;;;;4949290;28;20058;-45
2022/05/22 06:51:25;;;;;;;9.68;6.43;;;17.30;65.30;;;;;;4940804;28;20800;-46
2022/05/22 06:54:06;;;;;;;9.63;6.63;;;17.30;65.20;;;;;;4935468;28;20047;-43
2022/05/22 06:57:04;;;;;;;9.15;6.47;;;17.40;65.20;;;;;;4935941;28;20587;-45
2022/05/22 06:59:55;;;;;;;11.65;7.25;;;17.50;64.90;;;;;;4943065;28;20955;-44
2022/05/22 07:02:42;;;;;;;9.13;6.97;;;17.50;65.50;;;;;;4941136;28;20066;-46
2022/05/22 07:05:14;;;;;;;9.15;6.88;;;17.60;64.70;;;;;;4945988;28;20081;-48
2022/05/22 07:07:54;;;;;;;7.93;5.85;;;17.60;64.50;;;;;;4932753;28;20051;-47
2022/05/22 07:13:46;;;;;;;9.90;6.40;;;17.70;64.60;;;;;;4940968;28;20559;-47
2022/05/22 07:16:39;;;;;;;12.23;6.88;;;17.80;64.30;;;;;;4929597;28;20060;-47
2022/05/22 07:19:11;;;;;;;10.00;5.75;;;17.80;64.20;;;;;;4941386;29;20066;-44
2022/05/22 07:21:51;;;;;;;8.25;5.20;;;17.90;64.50;;;;;;4932363;28;20138;-45
2022/05/22 07:24:37;;;;;;;9.00;5.68;;;18.00;64.00;;;;;;4946280;28;20062;-47
2022/05/22 07:27:20;;;;;;;9.02;5.45;;;18.00;63.50;;;;;;4938248;28;20051;-48
2022/05/22 07:30:05;;;;;;;7.20;5.22;;;18.00;63.50;;;;;;4927458;29;20043;-48
2022/05/22 07:32:43;;;;;;;8.20;4.50;;;18.20;63.60;;;;;;4933789;28;20057;-47
2022/05/22 07:35:32;;;;;;;7.85;5.55;;;18.20;63.10;;;;;;4931618;29;20048;-49
2022/05/22 07:38:18;;;;;;;10.25;5.30;;;18.30;62.80;;;;;;4927202;28;20087;-47
2022/05/22 07:41:07;;;;;;;12.27;5.78;;;18.40;63.20;;;;;;4948980;28;20071;-44
2022/05/22 07:43:47;;;;;;;10.02;5.00;;;18.50;63.50;;;;;;4927045;28;20052;-45
2022/05/22 07:46:26;;;;;;;9.23;5.40;;;18.50;63.20;;;;;;4943059;28;21855;-46
2022/05/22 07:50:16;;;;;;;8.23;4.93;;;18.60;62.30;;;;;;4933981;29;20047;-50
2022/05/22 07:52:20;;;;;;;6.65;4.85;;;18.70;61.70;;;;;;4935563;28;20145;-47
2022/05/22 07:55:21;;;;;;;8.18;4.93;;;18.80;61.50;;;;;;4918303;28;20061;-45
2022/05/22 07:58:00;;;;;;;8.98;5.38;;;18.90;61.40;;;;;;4934611;28;20071;-45
2022/05/22 08:00:46;;;;;;;10.57;5.68;;;19.00;60.80;;;;;;4940750;28;20058;-46
2022/05/22 08:03:32;;;;;;;8.38;4.80;;;19.10;60.40;;;;;;4937316;28;20495;-47
2022/05/22 08:06:00;;;;;;;9.05;6.22;;;19.30;60.10;;;;;;4945769;28;20479;-44
2022/05/22 08:08:31;;;;;;;11.35;5.88;;;19.30;59.00;;;;;;4938451;28;20099;-45
2022/05/22 08:11:18;;;;;;;11.88;5.43;;;19.40;58.80;;;;;;4946152;28;20047;-45
2022/05/22 08:13:50;;;;;;;7.65;4.30;;;19.50;58.90;;;;;;4934372;28;20040;-46
2022/05/22 08:16:25;;;;;;;15.43;5.72;;;19.50;58.70;;;;;;4943814;28;20055;-46
2022/05/22 08:19:03;;;;;;;9.52;5.47;;;19.60;58.40;;;;;;4918339;29;20087;-47
2022/05/22 08:21:31;;;;;;;8.27;5.30;;;19.70;58.10;;;;;;4939289;28;20118;-47
2022/05/22 08:23:59;;;;;;;11.68;5.15;;;19.70;57.80;;;;;;4926205;29;20114;-46
2022/05/22 08:26:32;;;;;;;7.95;5.68;;;19.80;57.90;;;;;;4939210;28;20051;-46
2022/05/22 08:28:59;;;;;;;8.02;4.97;;;19.80;58.00;;;;;;4934409;29;20035;-47
2022/05/22 08:31:28;;;;;;;8.02;5.38;;;19.90;58.10;;;;;;4921159;28;20106;-52
2022/05/22 08:33:55;;;;;;;8.65;4.95;;;19.90;57.60;;;;;;4920391;29;20091;-45
2022/05/22 08:36:22;;;;;;;6.38;4.55;;;20.00;57.60;;;;;;4937316;28;20078;-45
2022/05/22 08:38:49;;;;;;;7.45;5.10;;;20.00;57.50;;;;;;4942677;28;20055;-49
2022/05/22 08:41:29;;;;;;;6.60;4.22;;;20.10;57.20;;;;;;4946208;28;20127;-47
2022/05/22 08:44:11;;;;;;;5.82;4.78;;;20.20;57.20;;;;;;4935587;28;20412;-46
2022/05/22 08:47:17;;;;;;;6.97;4.78;;;20.30;55.90;;;;;;4936690;28;20035;-47
2022/05/22 08:49:54;;;;;;;8.27;4.03;;;20.40;56.50;;;;;;4923404;29;20055;-47
2022/05/22 08:52:52;;;;;;;8.15;4.40;;;20.40;56.00;;;;;;4931699;28;20043;-46
2022/05/22 08:58:55;;;;;;;5.25;4.55;;;20.50;55.90;;;;;;4942695;28;20059;-47
2022/05/22 09:01:15;;;;;;;6.88;4.55;;;20.60;55.40;;;;;;4949522;28;20138;-45
2022/05/22 09:03:57;;;;;;;6.38;4.40;;;20.60;54.20;;;;;;4938786;28;20507;-46
2022/05/22 09:06:57;;;;;;;6.85;4.90;;;20.70;54.00;;;;;;4943425;28;20047;-44
2022/05/22 09:09:31;;;;;;;7.82;4.85;;;20.70;53.30;;;;;;4949248;28;20063;-44
2022/05/22 09:12:25;;;;;;;6.47;3.78;;;20.70;53.60;;;;;;4943868;28;20047;-45
2022/05/22 09:15:17;;;;;;;5.65;4.07;;;20.80;53.90;;;;;;4940252;28;20106;-45
2022/05/22 09:18:12;;;;;;;8.20;4.50;;;20.90;53.40;;;;;;4933696;28;20056;-45
2022/05/22 09:20:45;;;;;;;6.70;4.78;;;21.00;53.90;;;;;;4936076;28;20111;-45
2022/05/22 09:23:54;;;;;;;10.38;4.07;;;21.00;53.60;;;;;;4943140;28;20059;-44
2022/05/22 09:26:45;;;;;;;6.88;5.20;;;21.20;53.90;;;;;;4938160;28;21049;-45
2022/05/22 09:29:37;;;;;;;7.65;5.00;;;21.30;52.70;;;;;;4940835;28;20075;-49
2022/05/22 09:32:24;;;;;;;10.73;5.03;;;21.40;53.40;;;;;;4936960;28;20104;-49
2022/05/22 09:35:08;;;;;;;10.20;5.75;;;21.50;53.20;;;;;;4943152;28;20059;-48
2022/05/22 09:37:52;;;;;;;8.82;5.28;;;21.60;53.40;;;;;;4945502;28;20043;-48
2022/05/22 09:40:19;;;;;;;7.43;5.22;;;21.70;52.10;;;;;;4949353;28;20051;-50
2022/05/22 09:43:06;;;;;;;10.57;5.22;;;21.80;52.40;;;;;;4936867;28;20571;-49
2022/05/22 09:46:15;;;;;;;8.88;5.40;;;21.80;53.30;;;;;;4943439;28;20431;-50
2022/05/22 09:49:00;;;;;;;10.65;5.68;;;21.90;52.30;;;;;;4941337;28;20102;-46
2022/05/22 09:51:48;;;;;;;11.82;6.30;;;22.00;53.10;;;;;;4941584;28;20118;-46
2022/05/22 09:54:24;;;;;;;10.00;6.15;;;22.00;52.00;;;;;;4943207;28;20059;-50
2022/05/22 09:57:11;;;;;;;8.82;5.25;;;22.00;52.50;;;;;;4938706;28;20122;-49
2022/05/22 10:00:04;;;;;;;12.70;6.35;;;22.10;52.80;;;;;;4944828;28;20070;-46
2022/05/22 10:02:58;;;;;;;7.85;5.15;;;22.10;52.60;;;;;;4917899;29;20051;-47
2022/05/22 10:05:50;;;;;;;10.18;6.38;;;22.10;52.70;;;;;;4946757;28;20051;-50
2022/05/22 10:08:38;;;;;;;10.15;5.55;;;22.20;52.20;;;;;;4939988;28;20071;-45
2022/05/22 10:11:33;;;;;;;10.85;7.45;;;22.20;53.00;;;;;;4950854;28;20055;-49
2022/05/22 10:14:29;;;;;;;12.18;5.95;;;22.10;52.10;;;;;;4936850;28;20088;-47
2022/05/22 10:17:13;;;;;;;8.60;6.50;;;22.20;52.20;;;;;;4930603;28;20067;-48
2022/05/22 10:19:59;;;;;;;7.57;5.88;;;22.20;52.60;;;;;;4939605;28;20050;-48
2022/05/22 10:22:43;;;;;;;12.45;7.03;;;22.20;52.60;;;;;;4941851;28;20051;-48
2022/05/22 10:25:21;;;;;;;9.38;5.50;;;22.20;53.00;;;;;;4954017;28;20059;-46
2022/05/22 10:28:18;;;;;;;7.70;5.75;;;22.30;52.70;;;;;;4935205;28;20594;-47
2022/05/22 10:30:53;;;;;;;10.18;6.40;;;22.40;52.20;;;;;;4950072;28;20478;-48
2022/05/22 10:33:38;;;;;;;8.75;5.47;;;22.40;51.70;;;;;;4932378;28;20086;-49
2022/05/22 10:36:10;;;;;;;7.60;6.05;;;22.50;51.40;;;;;;4937996;28;20047;-50
2022/05/22 10:38:43;;;;;;;9.57;5.82;;;22.60;52.00;;;;;;4935733;28;20063;-48
2022/05/22 10:44:10;;;;;;;7.70;5.82;;;22.70;49.50;;;;;;4938152;28;20039;-47
2022/05/22 10:46:50;;;;;;;7.63;5.32;;;22.80;49.90;;;;;;4939459;28;20036;-49
2022/05/22 10:49:19;;;;;;;6.15;4.93;;;22.80;50.20;;;;;;4934810;28;20107;-48
2022/05/22 10:52:02;;;;;;;6.30;5.10;;;22.80;50.70;;;;;;4939938;28;20039;-49
2022/05/22 10:54:30;;;;;;;;;;;22.80;50.00;;;;;;4940716;28;20089;-50
2022/05/22 10:57:11;;;;;;;9.75;4.88;;;22.80;50.80;;;;;;4939033;28;19969;-50
2022/05/22 10:59:39;;;;;;;10.43;5.28;;;22.80;49.90;;;;;;4945245;28;20047;-46
2022/05/22 11:02:17;;;;;;;7.78;5.90;;;22.70;51.30;;;;;;4944898;28;20067;-49
2022/05/22 11:04:46;;;;;;;8.43;6.13;;;22.80;51.30;;;;;;4941403;28;20078;-46
2022/05/22 11:07:26;;;;;;;7.07;5.00;;;22.80;50.80;;;;;;4938091;28;20059;-50
2022/05/22 11:09:53;;;;;;;8.90;5.60;;;22.80;50.60;;;;;;4943466;28;20062;-48
2022/05/22 11:12:21;;;;;;;8.27;5.50;;;22.90;50.50;;;;;;4945421;28;20071;-49
2022/05/22 11:14:47;;;;;;;11.27;5.68;;;22.90;49.80;;;;;;4949820;28;20066;-48
2022/05/22 11:17:14;;;;;;;7.30;4.35;;;22.90;50.50;;;;;;4940087;28;20485;-50
2022/05/22 11:19:44;;;;;;;5.72;4.95;;;23.00;50.30;;;;;;4939456;28;20527;-48
2022/05/22 11:22:23;;;;;;;6.93;4.63;;;23.00;49.70;;;;;;4939854;28;20071;-48
2022/05/22 11:25:01;;;;;;;6.25;4.28;;;23.00;49.70;;;;;;4942409;28;20055;-48
2022/05/22 11:28:02;;;;;;;7.03;4.53;;;23.10;49.70;;;;;;4944531;28;20075;-49
2022/05/22 11:30:47;;;;;;;7.63;5.07;;;23.10;49.80;;;;;;4947650;28;20039;-49
2022/05/22 11:33:34;;;;;;;7.05;4.75;;;23.30;49.40;;;;;;4929303;28;20056;-49
2022/05/22 11:36:12;;;;;;;6.55;4.57;;;23.30;47.60;;;;;;4948839;28;20078;-49
2022/05/22 11:38:54;;;;;;;7.63;3.95;;;23.40;49.30;;;;;;4935680;29;20047;-50
2022/05/22 11:41:37;;;;;;;9.63;5.05;;;23.40;48.30;;;;;;4937723;28;20059;-46
2022/05/22 11:44:41;;;;;;;5.13;3.90;;;23.50;48.40;;;;;;4936815;28;20044;-50
2022/05/22 11:47:14;;;;;;;5.28;4.28;;;23.60;48.50;;;;;;4932631;28;20577;-49
2022/05/22 11:50:13;;;;;;;7.82;4.30;;;23.70;47.50;;;;;;4939993;28;20122;-48
2022/05/22 11:52:54;;;;;;;4.35;3.17;;;23.80;46.70;;;;;;4929064;28;20071;-48
2022/05/22 11:55:20;;;;;;;6.97;5.18;;;23.90;47.40;;;;;;4945723;28;20039;-50
2022/05/22 11:58:16;;;;;;;8.07;4.53;;;24.00;46.50;;;;;;4933703;28;20110;-50
2022/05/22 12:01:06;;;;;;;6.57;4.20;;;24.10;45.60;;;;;;4945032;28;20051;-48
2022/05/22 12:04:07;;;;;;;8.75;4.60;;;24.20;46.00;;;;;;4918172;28;20051;-49
2022/05/22 12:07:05;;;;;;;7.25;4.45;;;24.30;45.70;;;;;;4936386;28;20125;-51
2022/05/22 12:10:03;;;;;;;5.60;4.20;;;24.40;45.70;;;;;;4937789;28;20039;-50
2022/05/22 12:12:32;;;;;;;7.10;4.47;;;24.50;46.00;;;;;;4935620;28;20059;-50
2022/05/22 12:15:42;;;;;;;8.23;4.28;;;24.60;46.90;;;;;;4939327;28;20393;-49
2022/05/22 12:18:40;;;;;;;6.05;4.22;;;24.80;46.90;;;;;;4928201;28;20734;-50
2022/05/22 12:21:16;;;;;;;5.80;4.15;;;24.90;46.40;;;;;;4944366;28;20070;-47
2022/05/22 12:24:19;;;;;;;8.95;4.38;;;25.10;45.40;;;;;;4934870;28;20389;-46
2022/05/22 12:26:47;;;;;;;8.20;4.88;;;25.20;45.20;;;;;;4924947;28;20074;-48
2022/05/22 12:29:25;;;;;;;6.50;4.75;;;25.30;44.80;;;;;;4923079;28;20074;-46
2022/05/22 12:32:06;;;;;;;6.00;4.47;;;25.40;44.10;;;;;;4934387;28;20477;-50
2022/05/22 12:34:43;;;;;;;6.50;4.18;;;25.40;43.60;;;;;;4942541;28;20484;-49
2022/05/22 12:37:18;;;;;;;4.85;3.38;;;25.50;42.50;;;;;;4935560;28;20527;-46
2022/05/22 12:39:50;;;;;;;4.97;3.95;;;25.50;43.90;;;;;;4940615;28;20070;-46
2022/05/22 12:42:26;;;;;;;6.40;3.67;;;25.60;43.30;;;;;;4934358;28;20043;-45
2022/05/22 12:44:53;;;;;;;5.45;3.47;;;25.60;42.70;;;;;;4946035;28;20495;-49
2022/05/22 12:47:20;;;;;;;6.47;3.33;;;25.60;43.20;;;;;;4930434;28;20130;-49
2022/05/22 12:49:55;;;;;;;4.57;3.08;;;25.70;43.10;;;;;;4939954;28;20131;-51
2022/05/22 12:52:28;;;;;;;7.43;3.83;;;25.80;43.40;;;;;;4940297;28;20054;-49
2022/05/22 12:54:56;;;;;;;4.35;3.30;;;25.90;43.70;;;;;;4940845;28;20046;-50
2022/05/22 12:57:23;;;;;;;6.07;3.47;;;25.90;43.60;;;;;;4933654;28;20126;-49
2022/05/22 13:00:11;;;;;;;6.63;3.97;;;26.10;43.70;;;;;;4939121;28;20122;-46
2022/05/22 13:02:41;;;;;;;5.20;3.72;;;26.20;43.50;;;;;;4929874;28;20047;-50
2022/05/22 13:05:16;;;;;;;5.97;3.45;;;26.30;44.80;;;;;;4942714;28;20507;-46
2022/05/22 13:07:43;;;;;;;7.25;3.72;;;26.40;43.20;;;;;;4928143;28;20043;-51
2022/05/22 13:10:20;;;;;;;12.27;3.55;;;26.50;43.30;;;;;;4939375;28;20122;-51
2022/05/22 13:12:57;;;;;;;4.10;2.78;;;26.60;42.10;;;;;;4934574;28;20040;-49
2022/05/22 13:15:27;;;;;;;5.47;3.17;;;26.80;43.80;;;;;;4943479;28;20412;-51
2022/05/22 13:18:16;;;;;;;5.43;3.55;;;27.00;42.70;;;;;;4933224;28;20095;-50
2022/05/22 13:20:56;;;;;;;3.70;2.80;;;27.20;42.10;;;;;;4941939;28;20047;-50
2022/05/22 13:23:23;;;;;;;6.40;3.42;;;27.40;41.90;;;;;;4931030;28;20051;-50
2022/05/22 13:25:51;;;;;;;8.40;3.72;;;27.60;41.40;;;;;;4946320;28;20835;-49
2022/05/22 13:28:26;;;;;;;7.07;3.97;;;27.90;42.10;;;;;;4935475;28;20083;-50
2022/05/22 13:31:07;;;;;;;6.32;2.78;;;28.40;40.70;;;;;;4953469;28;20127;-49
2022/05/22 13:33:43;;;;;;;3.40;2.25;;;29.10;40.90;;;;;;4930071;28;20039;-50
2022/05/22 13:36:25;;;;;;;6.72;3.00;;;30.10;41.50;;;;;;4941681;28;20039;-51
2022/05/22 13:38:54;;;;;;;3.63;2.28;;;31.20;40.70;;;;;;4933301;28;20420;-50
2022/05/22 13:42:03;;;;;;;5.65;3.13;;;32.50;40.70;;;;;;4934621;28;20089;-49
2022/05/22 13:45:14;;;;;;;3.92;1.60;;;33.80;37.70;;;;;;4920276;28;20217;-51
2022/05/22 13:48:16;;;;;;;3.55;2.50;;;35.40;37.50;;;;;;4909500;28;20063;-52
2022/05/22 13:54:00;;;;;;;3.08;1.95;;;37.90;33.90;;;;;;4931865;28;20099;-52
2022/05/22 13:56:48;;;;;;;2.72;1.50;;;39.10;32.50;;;;;;4945486;28;20115;-50
2022/05/22 13:59:30;;;;;;;2.28;1.33;;;40.20;32.00;;;;;;4934212;28;20075;-51
2022/05/22 14:02:04;;;;;;;1.75;1.60;;;41.00;29.80;;;;;;4933364;28;20066;-50
2022/05/22 14:04:31;;;;;;;2.70;1.70;;;41.90;28.60;;;;;;4933383;28;20059;-51
2022/05/22 14:07:05;;;;;;;2.10;1.63;;;42.60;28.50;;;;;;4936825;28;20106;-51